Baie-Saint-Paul, Canada
Current Conditions -  °F | °C
As of 7:00 AM on Monday 20 Oct 2014 (Local Time) from CYOY Reporting Station
Overcast Overcast  
Wind Chill: 30°   Ceiling: 3400
Heat Index: 36°   Visibility: 9mi
Dew Point: 28°   Wind: 7mph
Humidity: 75%   Direction: 240°WSW
Pressure: 29.87"   Gusts: NA
Location:  47.43°N, 70.5°W
Report Text: CYOY 201100Z AUTO 24006KT 210V270 9SM OVC034 02/M02 A2987 RMKSLP123
Loading
Personal Weather Stations






























Interactive Weather Map New forecast layout! Learn more

10-Day Weather Forecast

Advertisements
Track Severe Weather on mobile